createdAt,value
2023-03-16T00:00:14.079Z,7.45
2023-03-16T00:02:42.304Z,6.72
2023-03-16T00:05:10.896Z,6.95
2023-03-16T00:07:38.933Z,7.65
2023-03-16T00:10:08.048Z,6.65
2023-03-16T00:12:36.036Z,6.32
2023-03-16T00:15:04.577Z,6.72
2023-03-16T00:17:34.801Z,6.53
2023-03-16T00:20:06.654Z,6.68
2023-03-16T00:22:35.179Z,6.35
2023-03-16T00:25:04.487Z,6.90
2023-03-16T00:27:32.539Z,6.40
2023-03-16T00:30:03.304Z,6.50
2023-03-16T00:32:35.511Z,7.65
2023-03-16T00:35:07.335Z,7.22
2023-03-16T00:37:39.757Z,7.32
2023-03-16T00:40:11.568Z,6.43
2023-03-16T00:42:39.608Z,6.55
2023-03-16T00:45:09.098Z,7.10
2023-03-16T00:47:38.493Z,6.50
2023-03-16T00:50:07.523Z,6.47
2023-03-16T00:52:35.773Z,7.30
2023-03-16T00:55:04.921Z,7.18
2023-03-16T00:57:32.968Z,6.47
2023-03-16T01:00:05.281Z,7.28
2023-03-16T01:02:37.065Z,6.60
2023-03-16T01:05:07.694Z,7.10
2023-03-16T01:07:37.013Z,7.20
2023-03-16T01:10:05.665Z,7.80
2023-03-16T01:12:33.967Z,7.45
2023-03-16T01:15:01.973Z,7.50
2023-03-16T01:17:30.012Z,8.32
2023-03-16T01:19:57.994Z,7.10
2023-03-16T01:22:27.834Z,6.93
2023-03-16T01:24:56.079Z,7.38
2023-03-16T01:27:26.231Z,7.10
2023-03-16T01:29:54.728Z,7.47
2023-03-16T01:32:23.140Z,6.72
2023-03-16T01:34:51.144Z,7.53
2023-03-16T01:37:19.851Z,7.35
2023-03-16T01:39:57.552Z,7.78
2023-03-16T01:42:25.584Z,8.00
2023-03-16T01:44:55.874Z,8.20
2023-03-16T01:47:28.243Z,8.75
2023-03-16T01:49:58.496Z,7.88
2023-03-16T01:52:34.309Z,7.30
2023-03-16T01:55:07.953Z,7.55
2023-03-16T01:57:40.065Z,8.05
2023-03-16T02:00:11.168Z,8.02
2023-03-16T02:02:56.207Z,7.68
2023-03-16T02:05:37.356Z,7.40
2023-03-16T02:08:06.934Z,8.15
2023-03-16T02:10:36.871Z,7.78
2023-03-16T02:13:05.220Z,7.85
2023-03-16T02:15:36.003Z,7.95
2023-03-16T02:18:05.714Z,8.13
2023-03-16T02:20:40.550Z,8.05
2023-03-16T02:23:18.336Z,9.15
2023-03-16T02:25:56.457Z,7.75
2023-03-16T02:28:35.059Z,8.57
2023-03-16T02:31:05.656Z,8.77
2023-03-16T02:33:35.718Z,7.90
2023-03-16T02:36:04.666Z,9.10
2023-03-16T02:38:32.702Z,7.57
2023-03-16T02:41:11.861Z,7.90
2023-03-16T02:43:43.416Z,7.93
2023-03-16T02:46:22.509Z,7.63
2023-03-16T02:48:56.149Z,6.80
2023-03-16T02:51:24.139Z,7.68
2023-03-16T02:53:52.460Z,6.72
2023-03-16T02:56:21.175Z,7.15
2023-03-16T02:58:49.207Z,7.40
2023-03-16T03:01:21.693Z,8.38
2023-03-16T03:03:50.602Z,8.98
2023-03-16T03:06:18.654Z,7.60
2023-03-16T03:08:46.651Z,7.00
2023-03-16T03:11:14.858Z,8.45
2023-03-16T03:13:44.573Z,7.95
2023-03-16T03:16:16.626Z,7.00
2023-03-16T03:18:45.992Z,8.07
2023-03-16T03:21:14.157Z,7.68
2023-03-16T03:23:42.267Z,8.00
2023-03-16T03:26:10.243Z,7.28
2023-03-16T03:28:39.250Z,7.55
2023-03-16T03:31:07.430Z,7.07
2023-03-16T03:33:35.880Z,8.65
2023-03-16T03:36:05.975Z,8.02
2023-03-16T03:38:37.492Z,7.30
2023-03-16T03:41:08.575Z,9.30
2023-03-16T03:43:39.033Z,7.82
2023-03-16T03:46:09.860Z,8.02
2023-03-16T03:48:37.928Z,8.48
2023-03-16T03:51:07.625Z,9.48
2023-03-16T03:53:45.055Z,8.32
2023-03-16T03:56:42.104Z,9.48
2023-03-16T03:59:13.905Z,9.10
2023-03-16T04:02:00.549Z,9.38
2023-03-16T04:04:38.704Z,9.27
2023-03-16T04:07:08.528Z,8.90
2023-03-16T04:09:36.691Z,9.27
2023-03-16T04:12:07.030Z,9.50
2023-03-16T04:14:35.757Z,8.60
2023-03-16T04:17:08.616Z,9.82
2023-03-16T04:19:38.829Z,9.43
2023-03-16T04:22:13.287Z,8.25
2023-03-16T04:24:43.148Z,9.13
2023-03-16T04:27:12.360Z,8.52
2023-03-16T04:29:41.306Z,8.50
2023-03-16T04:32:11.423Z,7.95
2023-03-16T04:34:43.667Z,6.68
2023-03-16T04:37:14.592Z,7.63
2023-03-16T04:39:44.323Z,8.45
2023-03-16T04:42:12.609Z,9.07
2023-03-16T04:44:45.071Z,8.90
2023-03-16T04:47:15.626Z,8.63
2023-03-16T04:49:45.640Z,9.18
2023-03-16T04:52:15.234Z,8.95
2023-03-16T04:54:43.743Z,9.38
2023-03-16T04:57:19.313Z,8.77
2023-03-16T04:59:50.348Z,10.50
2023-03-16T05:02:27.361Z,9.68
2023-03-16T05:04:57.359Z,11.95
2023-03-16T05:07:27.131Z,9.80
2023-03-16T05:09:56.922Z,9.65
2023-03-16T05:12:25.041Z,10.38
2023-03-16T05:14:57.557Z,10.55
2023-03-16T05:17:35.213Z,10.95
2023-03-16T05:20:08.036Z,9.73
2023-03-16T05:22:38.562Z,11.48
2023-03-16T05:25:16.723Z,10.95
2023-03-16T05:27:50.514Z,11.10
2023-03-16T05:30:26.737Z,11.80
2023-03-16T05:32:58.086Z,10.48
2023-03-16T05:35:28.079Z,11.60
2023-03-16T05:38:02.632Z,10.02
2023-03-16T05:40:33.098Z,10.98
2023-03-16T05:43:22.299Z,11.25
2023-03-16T05:45:52.812Z,11.55
2023-03-16T05:48:21.353Z,11.95
2023-03-16T05:50:55.967Z,11.23
2023-03-16T05:53:30.272Z,12.77
2023-03-16T05:56:06.941Z,11.68
2023-03-16T05:58:39.289Z,10.88
2023-03-16T06:01:10.076Z,11.52
2023-03-16T06:03:38.294Z,11.32
2023-03-16T06:06:08.928Z,11.70
2023-03-16T06:08:49.832Z,12.63
2023-03-16T06:11:19.928Z,11.57
2023-03-16T06:13:48.509Z,12.40
2023-03-16T06:16:16.978Z,13.80
2023-03-16T06:18:45.165Z,12.38
2023-03-16T06:21:13.156Z,13.23
2023-03-16T06:23:42.019Z,12.02
2023-03-16T06:26:12.320Z,14.70
2023-03-16T06:28:43.230Z,13.38
2023-03-16T06:31:12.061Z,13.20
2023-03-16T06:33:41.517Z,13.10
2023-03-16T06:36:09.888Z,12.50
2023-03-16T06:38:42.395Z,13.43
2023-03-16T06:41:18.012Z,12.70
2023-03-16T06:43:48.129Z,12.43
2023-03-16T06:46:16.201Z,11.68
2023-03-16T06:48:44.510Z,13.20
2023-03-16T06:51:12.514Z,12.80
2023-03-16T06:53:41.442Z,12.38
2023-03-16T06:56:09.528Z,12.95
2023-03-16T06:58:43.086Z,11.95
2023-03-16T07:01:12.564Z,13.57
2023-03-16T07:03:41.910Z,12.10
2023-03-16T07:06:26.788Z,11.10
2023-03-16T07:08:55.365Z,11.80
2023-03-16T07:11:24.490Z,11.85
2023-03-16T07:13:53.890Z,11.55
2023-03-16T07:16:23.487Z,11.88
2023-03-16T07:18:52.269Z,11.80
2023-03-16T07:21:21.725Z,12.40
2023-03-16T07:23:50.163Z,11.15
2023-03-16T07:26:24.643Z,12.07
2023-03-16T07:28:58.316Z,11.70
2023-03-16T07:31:26.750Z,11.30
2023-03-16T07:33:57.415Z,11.52
2023-03-16T07:36:34.095Z,11.98
2023-03-16T07:39:03.508Z,11.05
2023-03-16T07:41:32.812Z,11.75
2023-03-16T07:44:16.602Z,12.73
2023-03-16T07:46:48.669Z,10.60
2023-03-16T07:49:17.688Z,12.15
2023-03-16T07:51:47.608Z,10.70
2023-03-16T07:54:17.134Z,10.15
2023-03-16T07:56:49.352Z,10.20
2023-03-16T07:59:31.373Z,9.70
2023-03-16T08:02:00.285Z,8.82
2023-03-16T08:04:28.467Z,9.00
2023-03-16T08:07:00.243Z,9.50
2023-03-16T08:09:35.880Z,9.98
2023-03-16T08:12:07.591Z,10.07
2023-03-16T08:14:38.608Z,9.52
2023-03-16T08:17:17.728Z,10.48
2023-03-16T08:19:47.418Z,11.18
2023-03-16T08:22:17.191Z,11.15
2023-03-16T08:24:49.111Z,11.85
2023-03-16T08:27:19.992Z,12.52
2023-03-16T08:29:54.625Z,12.50
2023-03-16T08:32:26.116Z,12.85
2023-03-16T08:34:54.720Z,13.07
2023-03-16T08:37:24.164Z,12.30
2023-03-16T08:39:54.680Z,13.35
2023-03-16T08:42:23.614Z,12.65
2023-03-16T08:45:00.914Z,14.63
2023-03-16T08:47:30.990Z,15.90
2023-03-16T08:50:00.213Z,13.95
2023-03-16T08:52:28.405Z,12.85
2023-03-16T08:55:03.275Z,12.77
2023-03-16T08:57:32.780Z,13.63
2023-03-16T09:00:03.764Z,14.50
2023-03-16T09:02:31.705Z,13.40
2023-03-16T09:04:59.650Z,12.35
2023-03-16T09:07:30.036Z,11.25
2023-03-16T09:09:58.478Z,11.15
2023-03-16T09:12:26.415Z,12.35
2023-03-16T09:14:54.411Z,10.52
2023-03-16T09:17:23.676Z,11.20
2023-03-16T09:19:53.771Z,11.48
2023-03-16T09:22:24.094Z,11.60
2023-03-16T09:24:52.233Z,10.27
2023-03-16T09:27:20.550Z,10.20
2023-03-16T09:29:48.863Z,11.93
2023-03-16T09:32:16.882Z,9.07
2023-03-16T09:34:46.319Z,8.40
2023-03-16T09:37:15.738Z,8.73
2023-03-16T09:39:43.614Z,7.60
2023-03-16T09:42:19.268Z,7.50
2023-03-16T09:44:57.509Z,8.30
2023-03-16T09:47:28.801Z,6.67
2023-03-16T09:50:01.366Z,7.90
2023-03-16T09:52:36.074Z,7.23
2023-03-16T09:55:11.902Z,7.23
2023-03-16T09:57:42.790Z,7.43
2023-03-16T10:00:20.490Z,6.60
2023-03-16T10:02:59.889Z,6.10
2023-03-16T10:05:29.265Z,6.30
2023-03-16T10:08:09.011Z,6.97
2023-03-16T10:10:59.322Z,5.97
2023-03-16T10:13:37.167Z,6.87
2023-03-16T10:16:10.684Z,6.53
2023-03-16T10:18:44.937Z,6.60
2023-03-16T10:21:18.216Z,6.83
2023-03-16T10:23:48.575Z,6.57
2023-03-16T10:26:20.979Z,5.80
2023-03-16T10:28:48.941Z,5.67
2023-03-16T10:31:19.824Z,7.03
2023-03-16T10:33:49.595Z,5.77
2023-03-16T10:36:26.315Z,5.43
2023-03-16T10:38:58.811Z,5.23
2023-03-16T10:41:30.695Z,5.67
2023-03-16T10:44:06.233Z,5.60
2023-03-16T10:46:39.391Z,6.40
2023-03-16T10:49:20.474Z,4.90
2023-03-16T10:51:49.831Z,5.10
2023-03-16T10:54:31.763Z,4.63
2023-03-16T10:57:00.658Z,4.93
2023-03-16T10:59:32.107Z,5.50
2023-03-16T11:02:01.328Z,4.93
2023-03-16T11:04:33.431Z,5.30
2023-03-16T11:07:02.831Z,5.67
2023-03-16T11:09:34.780Z,5.20
2023-03-16T11:12:15.408Z,5.57
2023-03-16T11:14:46.758Z,6.07
2023-03-16T11:17:18.997Z,5.93
2023-03-16T11:19:55.630Z,6.77
2023-03-16T11:22:26.404Z,4.53
2023-03-16T11:25:02.115Z,5.53
2023-03-16T11:27:37.700Z,6.00
2023-03-16T11:30:13.630Z,5.33
2023-03-16T11:32:50.540Z,5.03
2023-03-16T11:35:20.677Z,4.90
2023-03-16T11:38:10.452Z,5.67
2023-03-16T11:40:49.173Z,6.03
2023-03-16T11:43:38.038Z,5.70
2023-03-16T11:46:13.275Z,36.23
2023-03-16T11:48:46.294Z,11.83
2023-03-16T11:51:27.806Z,5.70
2023-03-16T11:54:09.571Z,10.00
2023-03-16T11:56:42.513Z,7.60
2023-03-16T11:59:36.684Z,7.07
2023-03-16T12:46:02.447Z,4.13
2023-03-16T12:48:34.951Z,5.13
2023-03-16T12:51:05.171Z,3.80
2023-03-16T12:53:45.782Z,4.40
2023-03-16T12:56:17.521Z,3.20
2023-03-16T12:58:48.562Z,5.63
2023-03-16T13:01:20.694Z,3.77
2023-03-16T13:03:50.866Z,3.00
2023-03-16T13:06:22.682Z,3.27
2023-03-16T13:09:01.291Z,2.90
2023-03-16T13:11:29.723Z,3.00
2023-03-16T13:14:12.746Z,4.00
2023-03-16T13:16:43.803Z,3.50
2023-03-16T13:19:26.051Z,2.20
2023-03-16T13:22:04.114Z,2.10
2023-03-16T13:24:40.977Z,2.10
2023-03-16T13:27:23.221Z,1.77
2023-03-16T13:29:56.853Z,2.50
2023-03-16T13:32:28.671Z,1.80
2023-03-16T13:35:00.111Z,2.47
2023-03-16T13:37:30.070Z,2.53
2023-03-16T13:40:01.752Z,2.27
2023-03-16T13:42:31.480Z,2.20
2023-03-16T13:45:07.473Z,3.03
2023-03-16T13:47:36.817Z,2.80
2023-03-16T13:50:05.517Z,2.70
2023-03-16T13:52:36.456Z,2.00
2023-03-16T13:55:11.905Z,2.17
2023-03-16T13:57:42.986Z,2.60
2023-03-16T14:00:18.449Z,2.60
2023-03-16T14:02:50.708Z,2.53
2023-03-16T14:05:22.001Z,2.57
2023-03-16T14:07:51.976Z,2.40
2023-03-16T14:10:21.342Z,2.20
2023-03-16T14:12:53.840Z,2.13
2023-03-16T14:15:23.888Z,1.87
2023-03-16T14:17:53.426Z,2.07
2023-03-16T14:20:25.456Z,2.10
2023-03-16T14:22:54.527Z,2.20
2023-03-16T14:25:25.465Z,2.03
2023-03-16T14:27:59.902Z,2.33
2023-03-16T14:30:30.278Z,2.43
2023-03-16T14:33:02.402Z,2.80
2023-03-16T14:35:32.358Z,2.70
2023-03-16T14:38:21.634Z,6.40
2023-03-16T14:40:54.906Z,4.13
2023-03-16T14:43:30.643Z,4.07
2023-03-16T14:45:59.125Z,4.00
2023-03-16T14:48:30.269Z,4.57
2023-03-16T14:51:01.647Z,2.40
2023-03-16T14:53:30.149Z,2.43
2023-03-16T14:55:59.626Z,5.33
2023-03-16T14:58:27.680Z,2.93
2023-03-16T15:00:56.179Z,3.00
2023-03-16T15:03:34.136Z,1.87
2023-03-16T15:06:03.049Z,4.47
2023-03-16T15:08:34.163Z,4.30
2023-03-16T15:11:05.762Z,6.50
2023-03-16T15:13:52.714Z,5.40
2023-03-16T15:16:23.219Z,4.37
2023-03-16T15:18:52.930Z,4.17
2023-03-16T15:21:26.477Z,11.67
2023-03-16T15:23:54.570Z,3.80
2023-03-16T15:26:26.266Z,8.70
2023-03-16T15:28:54.302Z,5.30
2023-03-16T15:31:23.080Z,5.97
2023-03-16T15:33:52.748Z,2.83
2023-03-16T15:36:22.617Z,5.73
2023-03-16T15:38:52.539Z,2.90
2023-03-16T15:41:21.170Z,3.57
2023-03-16T15:43:49.105Z,5.83
2023-03-16T15:46:17.926Z,3.00
2023-03-16T15:48:45.864Z,2.67
2023-03-16T15:51:22.381Z,3.90
2023-03-16T15:53:53.177Z,2.10
2023-03-16T15:56:29.182Z,2.23
2023-03-16T15:59:00.334Z,3.47
2023-03-16T16:01:31.956Z,2.10
2023-03-16T16:03:59.972Z,2.10
2023-03-16T16:06:30.457Z,2.20
2023-03-16T16:08:58.481Z,1.73
2023-03-16T16:11:28.162Z,1.60
2023-03-16T16:13:58.150Z,1.70
2023-03-16T16:16:28.715Z,2.10
2023-03-16T16:18:58.045Z,1.93
2023-03-16T16:21:28.991Z,2.03
2023-03-16T16:23:58.499Z,2.00
2023-03-16T16:26:45.498Z,1.40
2023-03-16T16:29:18.068Z,2.03
2023-03-16T16:31:46.642Z,2.17
2023-03-16T16:34:17.104Z,2.10
2023-03-16T16:36:45.573Z,2.07
2023-03-16T16:39:15.128Z,1.93
2023-03-16T16:41:44.015Z,2.10
2023-03-16T16:44:17.699Z,1.90
2023-03-16T16:46:49.163Z,1.80
2023-03-16T16:49:20.126Z,2.10
2023-03-16T16:51:48.078Z,1.70
2023-03-16T16:54:20.178Z,2.30
2023-03-16T16:56:49.910Z,1.97
2023-03-16T16:59:20.038Z,2.03
2023-03-16T17:01:50.700Z,2.00
2023-03-16T17:04:23.140Z,2.37
2023-03-16T17:06:55.099Z,4.77
2023-03-16T17:09:26.054Z,6.73
2023-03-16T17:11:56.102Z,4.10
2023-03-16T17:14:27.545Z,3.00
2023-03-16T17:16:56.216Z,2.67
2023-03-16T17:19:25.910Z,2.37
2023-03-16T17:21:57.295Z,1.93
2023-03-16T17:24:28.629Z,2.33
2023-03-16T17:27:00.407Z,2.90
2023-03-16T17:29:31.379Z,3.07
2023-03-16T17:32:00.836Z,2.80
2023-03-16T17:34:30.935Z,2.90
2023-03-16T17:36:58.902Z,3.53
2023-03-16T17:39:29.836Z,3.33
2023-03-16T17:42:00.624Z,4.23
2023-03-16T17:44:32.547Z,4.00
2023-03-16T17:47:00.686Z,3.33
2023-03-16T17:49:30.733Z,4.00
2023-03-16T17:51:59.626Z,4.27
2023-03-16T17:54:28.959Z,5.63
2023-03-16T17:56:57.124Z,5.00
2023-03-16T17:59:25.130Z,6.00
2023-03-16T18:01:53.215Z,6.10
2023-03-16T18:04:23.418Z,5.90
2023-03-16T18:06:52.408Z,6.20
2023-03-16T18:09:21.487Z,7.20
2023-03-16T18:11:52.356Z,6.10
2023-03-16T18:14:34.930Z,6.10
2023-03-16T18:17:05.665Z,4.00
2023-03-16T18:19:33.714Z,3.93
2023-03-16T18:22:01.937Z,4.80
2023-03-16T18:24:30.752Z,4.67
2023-03-16T18:27:00.161Z,4.73
2023-03-16T18:29:28.181Z,4.67
2023-03-16T18:31:59.663Z,4.83
2023-03-16T18:34:33.595Z,5.10
2023-03-16T18:37:06.651Z,4.50
2023-03-16T18:39:34.741Z,4.50
2023-03-16T18:42:04.663Z,4.60
2023-03-16T18:44:33.757Z,5.15
2023-03-16T18:47:04.172Z,3.92
2023-03-16T18:49:35.275Z,3.83
2023-03-16T18:52:04.179Z,5.10
2023-03-16T18:54:35.681Z,4.70
2023-03-16T18:57:15.420Z,4.43
2023-03-16T18:59:43.474Z,4.03
2023-03-16T19:02:27.827Z,4.28
2023-03-16T19:04:57.528Z,4.55
2023-03-16T19:07:31.570Z,4.57
2023-03-16T19:10:00.501Z,4.40
2023-03-16T19:12:30.002Z,4.50
2023-03-16T19:14:57.957Z,4.00
2023-03-16T19:17:26.043Z,4.07
2023-03-16T19:19:54.451Z,4.28
2023-03-16T19:22:22.444Z,3.92
2023-03-16T19:24:52.653Z,3.88
2023-03-16T19:27:25.559Z,4.68
2023-03-16T19:29:55.969Z,4.00
2023-03-16T19:32:24.283Z,4.28
2023-03-16T19:34:52.219Z,3.90
2023-03-16T19:37:20.785Z,4.15
2023-03-16T19:39:49.032Z,4.20
2023-03-16T19:42:22.339Z,3.78
2023-03-16T19:44:51.444Z,4.30
2023-03-16T19:47:28.135Z,4.10
2023-03-16T19:49:56.653Z,3.83
2023-03-16T19:52:24.547Z,3.15
2023-03-16T19:54:52.706Z,3.10
2023-03-16T19:57:21.463Z,3.20
2023-03-16T19:59:53.108Z,2.00
2023-03-16T20:02:26.802Z,3.47
2023-03-16T20:04:55.626Z,3.08
2023-03-16T20:07:23.830Z,2.45
2023-03-16T20:09:52.005Z,2.25
2023-03-16T20:12:23.144Z,2.83
2023-03-16T20:14:52.085Z,2.97
2023-03-16T20:17:23.226Z,3.00
2023-03-16T20:19:53.753Z,2.42
2023-03-16T20:22:23.578Z,2.88
2023-03-16T20:24:52.420Z,2.45
2023-03-16T20:27:22.195Z,2.20
2023-03-16T20:29:50.640Z,2.25
2023-03-16T20:32:21.267Z,2.00
2023-03-16T20:34:50.346Z,2.47
2023-03-16T20:37:24.706Z,2.95
2023-03-16T20:39:53.799Z,3.15
2023-03-16T20:42:26.732Z,3.05
2023-03-16T20:44:54.654Z,2.85
2023-03-16T20:47:24.573Z,3.08
2023-03-16T20:49:53.295Z,3.28
2023-03-16T20:52:25.683Z,3.40
2023-03-16T20:54:53.810Z,2.80
2023-03-16T20:57:23.805Z,3.22
2023-03-16T20:59:55.247Z,2.75
2023-03-16T21:02:28.443Z,2.95
2023-03-16T21:04:57.162Z,2.90
2023-03-16T21:07:27.205Z,3.03
2023-03-16T21:09:55.204Z,3.03
2023-03-16T21:12:26.176Z,2.72
2023-03-16T21:14:54.508Z,3.05
2023-03-16T21:17:26.462Z,3.35
2023-03-16T21:19:55.165Z,3.30
2023-03-16T21:22:27.248Z,3.05
2023-03-16T21:24:55.703Z,3.45
2023-03-16T21:27:26.863Z,2.80
2023-03-16T21:29:56.313Z,3.25
2023-03-16T21:32:27.174Z,3.10
2023-03-16T21:34:57.517Z,3.42
2023-03-16T21:37:27.921Z,2.90
2023-03-16T21:39:56.081Z,2.90
2023-03-16T21:42:23.994Z,3.10
2023-03-16T21:44:52.363Z,3.47
2023-03-16T21:47:24.922Z,3.13
2023-03-16T21:49:53.773Z,3.15
2023-03-16T21:52:28.122Z,3.15
2023-03-16T21:54:58.963Z,2.53
2023-03-16T21:57:27.057Z,2.80
2023-03-16T21:59:54.967Z,2.20
2023-03-16T22:02:25.437Z,3.13
2023-03-16T22:04:53.940Z,2.65
2023-03-16T22:07:23.100Z,2.85
2023-03-16T22:09:52.413Z,2.58
2023-03-16T22:12:20.335Z,2.60
2023-03-16T22:14:48.790Z,2.80
2023-03-16T22:17:21.962Z,2.50
2023-03-16T22:19:50.032Z,2.47
2023-03-16T22:22:18.596Z,2.20
2023-03-16T22:24:47.506Z,2.42
2023-03-16T22:27:21.376Z,2.75
2023-03-16T22:29:51.208Z,2.00
2023-03-16T22:32:21.860Z,2.50
2023-03-16T22:34:52.271Z,2.22
2023-03-16T22:37:23.190Z,2.47
2023-03-16T22:39:51.955Z,2.50
2023-03-16T22:42:33.555Z,2.25
2023-03-16T22:45:01.786Z,3.10
2023-03-16T22:47:32.610Z,3.10
2023-03-16T22:50:00.810Z,3.30
2023-03-16T22:52:31.736Z,3.00
2023-03-16T22:55:01.358Z,2.80
2023-03-16T22:57:31.790Z,3.05
2023-03-16T23:00:01.277Z,2.63
2023-03-16T23:02:30.563Z,2.97
2023-03-16T23:04:58.499Z,3.20
2023-03-16T23:07:26.596Z,2.50
2023-03-16T23:09:54.583Z,2.65
2023-03-16T23:12:23.390Z,2.17
2023-03-16T23:14:52.883Z,2.55
2023-03-16T23:17:23.255Z,3.28
2023-03-16T23:19:51.878Z,2.80
2023-03-16T23:22:19.973Z,2.95
2023-03-16T23:24:48.054Z,2.40
2023-03-16T23:27:19.345Z,2.60
2023-03-16T23:29:47.703Z,2.55
2023-03-16T23:32:17.850Z,2.75
2023-03-16T23:34:45.926Z,2.22
2023-03-16T23:37:13.973Z,2.67
2023-03-16T23:39:42.317Z,3.33
2023-03-16T23:42:10.937Z,2.95
2023-03-16T23:44:39.036Z,2.85
2023-03-16T23:47:07.170Z,3.05
2023-03-16T23:49:39.586Z,2.70
2023-03-16T23:52:07.768Z,2.63
2023-03-16T23:54:35.677Z,3.10
2023-03-16T23:57:03.573Z,3.00
2023-03-16T23:59:31.553Z,2.97
